Time;durP1;ratioP1;P1;durP2;ratioP2;P2;SDS_P1;SDS_P2;PMS_P1;PMS_P2;Temp;Humidity;BMP_temperature;BMP_pressure;BME280_temperature;BME280_humidity;BME280_pressure;Samples;Min_cycle;Max_cycle;Signal;HPM_P1;HPM_P2
2021/01/23 00:01:48;;;;;;;10.87;7.03;;;4.60;99.90;;;;;;6270004;23;20445;-86
2021/01/23 00:08:01;;;;;;;8.30;6.50;;;4.60;99.90;;;;;;6178142;22;20450;-86
2021/01/23 00:10:31;;;;;;;10.07;7.33;;;4.70;99.90;;;;;;6246539;23;20414;-86
2021/01/23 00:13:06;;;;;;;9.53;6.10;;;4.60;99.90;;;;;;6269554;23;20423;-86
2021/01/23 00:15:35;;;;;;;9.97;7.07;;;4.70;99.90;;;;;;6267286;22;20458;-86
2021/01/23 00:18:05;;;;;;;10.47;6.50;;;4.60;99.90;;;;;;6269658;23;20506;-86
2021/01/23 00:20:42;;;;;;;9.97;6.77;;;4.50;99.90;;;;;;6243034;23;20459;-86
2021/01/23 00:26:35;;;;;;;8.87;6.43;;;4.60;99.90;;;;;;6238564;23;20444;-86
2021/01/23 00:29:11;;;;;;;8.97;7.00;;;4.50;99.90;;;;;;6214658;23;20412;-85
2021/01/23 00:31:47;;;;;;;11.13;7.33;;;4.50;99.90;;;;;;6239010;23;20405;-86
2021/01/23 00:34:21;;;;;;;7.73;6.57;;;4.70;99.90;;;;;;6238501;22;20443;-86
2021/01/23 00:36:51;;;;;;;11.80;6.77;;;4.70;99.90;;;;;;6270642;22;20418;-86
2021/01/23 00:39:23;;;;;;;10.13;7.50;;;4.80;99.90;;;;;;6268500;22;20404;-86
2021/01/23 00:41:56;;;;;;;10.97;6.70;;;4.80;99.90;;;;;;6269124;23;20398;-85
2021/01/23 00:44:42;;;;;;;11.33;7.10;;;4.70;99.90;;;;;;6270577;22;20449;-86
2021/01/23 00:47:16;;;;;;;12.40;6.73;;;4.60;99.90;;;;;;6266944;23;20438;-86
2021/01/23 00:49:57;;;;;;;8.27;6.70;;;4.50;99.90;;;;;;6268675;23;20418;-86
2021/01/23 00:52:42;;;;;;;12.20;7.47;;;4.40;99.90;;;;;;6270208;22;20383;-86
2021/01/23 00:55:27;;;;;;;11.03;7.30;;;4.40;99.90;;;;;;6266960;22;20426;-86
2021/01/23 00:58:03;;;;;;;11.63;7.10;;;4.30;99.90;;;;;;6266271;23;20463;-87
2021/01/23 01:00:42;;;;;;;9.83;6.40;;;4.50;99.90;;;;;;6269080;23;20483;-85
2021/01/23 01:06:02;;;;;;;11.47;6.30;;;4.40;99.90;;;;;;6269769;23;20425;-86
2021/01/23 01:08:34;;;;;;;11.13;6.70;;;4.50;99.90;;;;;;6269115;23;20443;-86
2021/01/23 01:11:38;;;;;;;11.90;6.40;;;4.60;99.90;;;;;;6269565;23;20394;-86
2021/01/23 01:14:17;;;;;;;11.50;6.13;;;4.60;99.90;;;;;;6270388;22;20704;-86
2021/01/23 05:34:35;;;;;;;7.80;4.00;;;3.60;99.90;;;;;;6352095;22;20427;-86
2021/01/23 05:37:12;;;;;;;8.07;3.23;;;3.70;99.90;;;;;;6332542;22;20185;-86
2021/01/23 05:39:58;;;;;;;6.50;2.80;;;3.80;99.90;;;;;;6332869;22;20393;-86
2021/01/23 05:42:34;;;;;;;5.27;2.97;;;3.60;99.90;;;;;;6332211;22;20421;-85
2021/01/23 05:45:08;;;;;;;5.37;2.77;;;3.70;99.90;;;;;;6330808;22;20436;-86
2021/01/23 05:47:39;;;;;;;5.07;3.07;;;3.70;99.90;;;;;;6332674;22;20441;-86
2021/01/23 05:50:30;;;;;;;3.10;2.80;;;3.70;99.90;;;;;;6332975;22;20421;-86
2021/01/23 05:52:58;;;;;;;5.27;3.20;;;3.60;99.90;;;;;;6331915;22;20398;-86
2021/01/23 05:55:29;;;;;;;6.40;2.90;;;3.60;99.90;;;;;;6331843;22;20405;-85
2021/01/23 05:57:59;;;;;;;6.43;2.67;;;3.60;99.90;;;;;;6332371;22;20740;-86
2021/01/23 06:00:33;;;;;;;8.10;3.23;;;3.50;99.90;;;;;;6303264;22;20454;-86
2021/01/23 06:03:00;;;;;;;7.20;3.37;;;3.60;99.90;;;;;;6296116;22;20390;-90
2021/01/23 06:05:28;;;;;;;10.68;3.70;;;3.70;99.90;;;;;;6278407;22;20396;-90
2021/01/23 06:07:55;;;;;;;6.23;3.20;;;3.60;99.90;;;;;;6278966;22;20272;-91
2021/01/23 06:10:38;;;;;;;7.27;2.80;;;3.70;99.90;;;;;;6278813;22;20474;-91
2021/01/23 06:13:05;;;;;;;5.43;3.00;;;3.80;99.90;;;;;;6279573;22;20410;-91
2021/01/23 06:15:39;;;;;;;4.67;2.57;;;3.70;99.90;;;;;;6279230;22;20509;-92
2021/01/23 06:18:07;;;;;;;10.20;3.10;;;3.70;99.90;;;;;;6279202;22;20712;-91
2021/01/23 06:20:52;;;;;;;11.03;2.80;;;3.70;99.90;;;;;;6278654;22;20878;-92
2021/01/23 06:23:21;;;;;;;5.43;3.03;;;3.70;99.90;;;;;;6252274;22;20398;-90
2021/01/23 06:26:00;;;;;;;7.50;2.90;;;3.70;99.90;;;;;;6279214;22;20426;-94
2021/01/23 06:28:51;;;;;;;4.93;2.60;;;3.70;99.90;;;;;;6278715;22;20433;-91
2021/01/23 06:31:32;;;;;;;6.20;2.80;;;3.60;99.90;;;;;;6278910;22;20398;-92
2021/01/23 06:34:23;;;;;;;9.90;2.80;;;3.50;99.90;;;;;;6252489;22;20832;-91
2021/01/23 06:37:05;;;;;;;4.40;2.73;;;3.50;99.90;;;;;;6279013;22;20391;-92
2021/01/23 06:39:33;;;;;;;9.93;2.77;;;3.60;99.90;;;;;;6277817;22;20416;-91
2021/01/23 06:41:59;;;;;;;7.73;2.40;;;3.50;99.90;;;;;;6278716;22;20467;-91
2021/01/23 06:44:26;;;;;;;6.23;2.43;;;3.60;99.90;;;;;;6278400;22;20431;-90
2021/01/23 06:46:57;;;;;;;6.67;1.97;;;3.50;99.90;;;;;;6278948;22;20438;-91
2021/01/23 06:49:25;;;;;;;5.97;2.40;;;3.50;99.90;;;;;;6279114;22;20743;-91
2021/01/23 06:52:04;;;;;;;5.27;2.30;;;3.40;99.90;;;;;;6278694;22;20395;-93
2021/01/23 06:54:31;;;;;;;7.70;3.10;;;3.40;99.90;;;;;;6278906;22;20434;-92
2021/01/23 06:56:57;;;;;;;5.87;2.10;;;3.40;99.90;;;;;;6278887;22;20403;-93
2021/01/23 06:59:25;;;;;;;2.47;2.03;;;3.40;99.90;;;;;;6278403;22;20437;-91
2021/01/23 07:01:59;;;;;;;6.23;2.73;;;3.40;99.90;;;;;;6278628;22;20399;-91
2021/01/23 07:04:26;;;;;;;6.63;2.47;;;3.50;99.90;;;;;;6277942;22;20446;-90
2021/01/23 07:06:57;;;;;;;6.30;2.30;;;3.50;99.90;;;;;;6278551;22;20484;-91
2021/01/23 07:09:46;;;;;;;10.77;3.90;;;3.40;99.90;;;;;;6278470;22;20458;-91
2021/01/23 07:12:13;;;;;;;5.33;2.43;;;3.40;99.90;;;;;;6278384;22;20395;-90
2021/01/23 07:14:39;;;;;;;7.53;2.33;;;3.50;99.90;;;;;;6278538;22;20740;-91
2021/01/23 07:17:13;;;;;;;5.07;1.97;;;3.40;99.90;;;;;;6279312;22;20449;-91
2021/01/23 07:19:40;;;;;;;5.03;2.27;;;3.40;99.90;;;;;;6278502;22;20379;-90
2021/01/23 07:22:07;;;;;;;15.53;2.80;;;3.40;99.90;;;;;;6278698;22;20711;-91
2021/01/23 07:24:34;;;;;;;6.23;2.67;;;3.40;99.90;;;;;;6278132;22;20426;-92
2021/01/23 07:27:00;;;;;;;5.87;2.70;;;3.40;99.90;;;;;;6278670;22;20448;-90
2021/01/23 07:29:27;;;;;;;5.13;2.40;;;3.40;99.90;;;;;;6278401;22;20393;-90
2021/01/23 07:31:55;;;;;;;7.43;3.20;;;3.30;99.90;;;;;;6278597;22;20407;-92
2021/01/23 07:34:21;;;;;;;5.30;2.77;;;3.30;99.90;;;;;;6278497;22;20460;-92
2021/01/23 07:36:47;;;;;;;6.17;2.83;;;3.40;99.90;;;;;;6278090;22;20410;-91
2021/01/23 07:39:16;;;;;;;9.73;2.90;;;3.40;99.90;;;;;;6278041;22;20406;-90
2021/01/23 07:41:48;;;;;;;7.17;2.77;;;3.40;99.90;;;;;;6278428;22;20398;-92
2021/01/23 07:44:17;;;;;;;7.93;2.93;;;3.50;99.90;;;;;;6278149;22;20810;-90
2021/01/23 07:46:45;;;;;;;4.77;2.80;;;3.50;99.90;;;;;;6278386;22;20391;-92
2021/01/23 07:49:21;;;;;;;6.23;3.20;;;3.40;99.90;;;;;;6278491;22;20410;-91
2021/01/23 07:51:48;;;;;;;6.33;2.67;;;3.40;99.90;;;;;;6277722;22;20410;-90
2021/01/23 07:54:15;;;;;;;5.67;2.97;;;3.40;99.90;;;;;;6277884;22;20430;-92
2021/01/23 07:56:53;;;;;;;9.90;3.40;;;3.40;99.90;;;;;;6277870;22;20545;-91
2021/01/23 07:59:19;;;;;;;7.23;3.00;;;3.40;99.90;;;;;;6278068;22;20387;-91
2021/01/23 08:01:46;;;;;;;4.57;3.00;;;3.40;99.90;;;;;;6279363;22;20858;-92
2021/01/23 08:04:33;;;;;;;5.83;3.00;;;3.50;99.90;;;;;;6281395;22;20472;-92
2021/01/23 08:07:20;;;;;;;5.80;2.80;;;3.50;99.90;;;;;;6280670;22;20750;-91
2021/01/23 08:10:04;;;;;;;8.73;3.43;;;3.50;99.90;;;;;;6278056;22;20400;-91
2021/01/23 08:12:30;;;;;;;3.80;2.40;;;3.50;99.90;;;;;;6277836;22;20900;-90
2021/01/23 08:14:57;;;;;;;7.50;3.30;;;3.40;99.90;;;;;;6278080;22;20438;-91
2021/01/23 08:17:36;;;;;;;5.60;3.20;;;3.40;99.90;;;;;;6278068;22;20386;-91
2021/01/23 08:20:04;;;;;;;5.30;3.10;;;3.50;99.90;;;;;;6278249;22;20451;-93
2021/01/23 08:22:30;;;;;;;15.60;3.67;;;3.60;99.90;;;;;;6277946;22;20490;-90
2021/01/23 08:24:57;;;;;;;8.27;4.43;;;3.70;99.90;;;;;;6277876;22;20434;-92
2021/01/23 08:27:24;;;;;;;10.60;3.63;;;3.80;99.90;;;;;;6277871;22;20433;-92
2021/01/23 08:29:51;;;;;;;8.47;3.60;;;3.70;99.90;;;;;;6277871;22;20387;-90
2021/01/23 08:32:18;;;;;;;7.70;3.60;;;3.80;99.90;;;;;;6278228;22;20391;-91
2021/01/23 08:34:45;;;;;;;8.67;3.60;;;3.90;99.90;;;;;;6278122;22;20986;-90
2021/01/23 08:37:12;;;;;;;12.33;5.07;;;3.90;99.90;;;;;;6278033;22;20460;-91
2021/01/23 08:39:47;;;;;;;7.53;4.50;;;3.90;99.90;;;;;;6250742;22;20982;-91
2021/01/23 08:42:14;;;;;;;12.03;5.83;;;4.00;99.90;;;;;;6278652;22;20406;-89
2021/01/23 08:44:41;;;;;;;5.93;4.20;;;4.10;99.90;;;;;;6277948;22;20505;-90
2021/01/23 08:47:07;;;;;;;10.20;4.20;;;4.30;99.90;;;;;;6277765;22;20980;-90
2021/01/23 08:49:34;;;;;;;7.83;4.33;;;4.30;99.90;;;;;;6277666;22;20489;-91
2021/01/23 08:52:00;;;;;;;8.87;4.17;;;4.30;99.90;;;;;;6278044;22;20387;-92
2021/01/23 08:54:27;;;;;;;9.20;4.23;;;4.20;99.90;;;;;;6277681;22;20834;-89
2021/01/23 08:56:53;;;;;;;10.53;5.03;;;4.20;99.90;;;;;;6278124;22;20479;-92
2021/01/23 08:59:20;;;;;;;5.23;3.80;;;4.20;99.90;;;;;;6277716;22;20831;-92
2021/01/23 09:01:47;;;;;;;8.70;3.60;;;4.30;99.90;;;;;;6277356;22;20493;-91
2021/01/23 09:04:13;;;;;;;11.50;3.90;;;4.40;99.90;;;;;;6276908;22;20454;-90
2021/01/23 09:06:40;;;;;;;6.23;3.23;;;4.60;99.90;;;;;;6277832;22;20413;-91
2021/01/23 09:09:07;;;;;;;8.23;4.03;;;4.60;99.90;;;;;;6278006;22;20410;-91
2021/01/23 09:11:36;;;;;;;9.17;3.70;;;4.70;99.90;;;;;;6277853;22;20166;-91
2021/01/23 09:14:03;;;;;;;6.13;3.73;;;4.80;99.90;;;;;;6274397;22;20763;-91
2021/01/23 09:16:31;;;;;;;9.07;3.67;;;4.80;99.90;;;;;;6276538;22;20673;-92
2021/01/23 09:18:57;;;;;;;9.30;4.03;;;4.80;99.90;;;;;;6277058;22;20162;-92
2021/01/23 09:21:23;;;;;;;9.30;4.30;;;4.80;99.90;;;;;;6277431;22;20161;-92
2021/01/23 09:23:50;;;;;;;8.67;4.67;;;5.00;99.90;;;;;;6277279;22;20573;-90
2021/01/23 09:26:16;;;;;;;10.40;4.77;;;5.00;99.90;;;;;;6277363;22;20173;-92
2021/01/23 09:28:43;;;;;;;7.90;4.53;;;5.00;99.90;;;;;;6277101;22;20280;-91
2021/01/23 09:31:09;;;;;;;6.60;4.40;;;5.00;99.90;;;;;;6277003;22;20177;-90
2021/01/23 09:33:37;;;;;;;11.07;4.83;;;5.10;99.90;;;;;;6277453;22;20173;-91
2021/01/23 09:36:04;;;;;;;13.60;5.17;;;5.20;99.90;;;;;;6277661;22;20181;-90
2021/01/23 09:38:31;;;;;;;7.90;5.20;;;5.30;99.90;;;;;;6276911;22;20170;-90
2021/01/23 09:40:57;;;;;;;9.00;4.80;;;5.30;99.90;;;;;;6277012;22;20169;-90
2021/01/23 09:43:24;;;;;;;13.00;5.53;;;5.30;99.90;;;;;;6277308;22;20491;-92
2021/01/23 09:45:51;;;;;;;27.73;12.67;;;5.60;99.90;;;;;;6277690;22;20198;-92
2021/01/23 09:48:19;;;;;;;14.47;6.83;;;5.50;99.90;;;;;;6278776;22;20196;-91
2021/01/23 09:50:47;;;;;;;13.50;7.03;;;5.60;99.90;;;;;;6278799;22;20166;-91
2021/01/23 09:53:13;;;;;;;11.43;6.60;;;5.60;99.90;;;;;;6278665;22;20175;-90
2021/01/23 09:55:41;;;;;;;16.83;7.95;;;5.70;99.90;;;;;;6278213;22;20400;-92
2021/01/23 09:58:07;;;;;;;15.27;6.83;;;5.60;99.90;;;;;;6278773;22;20181;-93
2021/01/23 10:00:34;;;;;;;11.90;6.67;;;5.70;99.90;;;;;;6278721;22;20174;-91
2021/01/23 10:03:00;;;;;;;16.30;7.47;;;5.70;99.90;;;;;;6274498;22;20668;-91
2021/01/23 10:05:26;;;;;;;17.33;7.57;;;5.80;99.90;;;;;;6270848;22;20197;-92
2021/01/23 10:07:54;;;;;;;13.37;7.73;;;5.70;99.90;;;;;;6279299;22;20200;-93
2021/01/23 10:10:20;;;;;;;16.90;7.07;;;5.80;99.90;;;;;;6282218;22;20220;-92
2021/01/23 10:12:47;;;;;;;16.77;7.43;;;6.00;99.90;;;;;;6280046;22;20609;-93
2021/01/23 10:15:13;;;;;;;16.20;7.90;;;6.10;99.90;;;;;;6279054;22;20197;-93
2021/01/23 10:17:40;;;;;;;15.17;7.43;;;6.10;99.90;;;;;;6279434;22;20248;-93
2021/01/23 10:20:08;;;;;;;12.93;7.33;;;6.20;99.90;;;;;;6279237;22;20222;-92
2021/01/23 10:22:34;;;;;;;16.80;8.03;;;6.30;99.90;;;;;;6278827;22;20555;-93
2021/01/23 10:25:01;;;;;;;14.07;8.40;;;6.30;99.90;;;;;;6278647;22;20280;-93
2021/01/23 10:27:28;;;;;;;15.27;7.87;;;6.30;99.90;;;;;;6279294;22;20230;-93
2021/01/23 10:29:54;;;;;;;13.63;8.40;;;6.40;99.90;;;;;;6278761;22;20258;-93
2021/01/23 10:32:21;;;;;;;15.27;8.30;;;6.40;99.90;;;;;;6278439;22;20180;-93
2021/01/23 10:34:47;;;;;;;12.80;7.50;;;6.40;99.90;;;;;;6279056;22;20264;-93
2021/01/23 10:37:13;;;;;;;13.77;7.67;;;6.50;99.90;;;;;;6278221;22;20260;-92
2021/01/23 10:39:40;;;;;;;15.23;8.17;;;6.50;99.90;;;;;;6278699;22;20170;-92
2021/01/23 10:42:07;;;;;;;14.37;7.80;;;6.50;99.90;;;;;;6279187;22;20256;-92
2021/01/23 10:44:38;;;;;;;15.00;8.67;;;6.60;99.90;;;;;;6278354;22;20198;-93
2021/01/23 10:47:05;;;;;;;17.83;8.27;;;6.60;99.90;;;;;;6278789;22;20597;-92
2021/01/23 10:49:31;;;;;;;13.90;7.90;;;6.70;99.90;;;;;;6278957;22;20676;-92
2021/01/23 10:51:58;;;;;;;15.17;7.57;;;6.70;99.90;;;;;;6278881;22;20320;-93
2021/01/23 10:54:25;;;;;;;14.93;7.50;;;6.70;99.90;;;;;;6278462;22;20193;-92
2021/01/23 10:56:51;;;;;;;17.83;8.83;;;6.80;99.90;;;;;;6278048;22;20175;-93
2021/01/23 10:59:18;;;;;;;13.17;7.03;;;7.00;99.90;;;;;;6278034;22;20252;-93
2021/01/23 11:01:45;;;;;;;15.50;9.15;;;7.00;99.90;;;;;;6277302;22;20398;-94
2021/01/23 11:04:11;;;;;;;20.70;7.90;;;7.10;99.90;;;;;;6278146;22;20197;-92
2021/01/23 11:06:38;;;;;;;14.83;8.30;;;7.20;99.90;;;;;;6278385;22;20162;-93
2021/01/23 11:09:05;;;;;;;28.30;15.20;;;7.30;99.90;;;;;;6278399;22;20209;-93
2021/01/23 11:11:31;;;;;;;11.90;7.20;;;7.20;99.90;;;;;;6277924;22;20177;-93
2021/01/23 11:13:58;;;;;;;12.87;7.37;;;7.20;99.90;;;;;;6279074;22;20281;-93
2021/01/23 11:16:32;;;;;;;15.73;7.87;;;7.20;99.90;;;;;;6277831;22;20177;-93
2021/01/23 11:18:59;;;;;;;14.67;7.23;;;7.30;99.90;;;;;;6278911;22;20188;-93
2021/01/23 11:21:26;;;;;;;15.80;8.50;;;7.40;99.90;;;;;;6251596;22;20209;-93
2021/01/23 11:23:52;;;;;;;17.40;8.53;;;7.40;99.90;;;;;;6278017;22;20749;-93
2021/01/23 11:26:19;;;;;;;14.53;8.63;;;7.60;99.90;;;;;;6251233;22;20264;-92
2021/01/23 11:28:45;;;;;;;15.80;7.67;;;7.50;99.90;;;;;;6277817;22;20196;-92
2021/01/23 11:31:12;;;;;;;14.23;8.03;;;7.40;99.90;;;;;;6278198;22;20162;-93
2021/01/23 11:33:40;;;;;;;12.50;7.07;;;7.30;99.90;;;;;;6277498;22;20260;-93
2021/01/23 11:36:07;;;;;;;18.40;8.07;;;7.30;99.90;;;;;;6277923;22;20481;-92
2021/01/23 11:38:34;;;;;;;18.67;8.13;;;7.20;99.90;;;;;;6277869;22;20253;-92
2021/01/23 11:41:00;;;;;;;17.50;7.23;;;7.20;99.90;;;;;;6277773;22;20276;-93
2021/01/23 11:43:27;;;;;;;14.53;6.50;;;7.20;99.90;;;;;;6277861;22;20179;-90
2021/01/23 11:45:53;;;;;;;14.40;7.10;;;7.30;99.90;;;;;;6277867;22;20277;-92
2021/01/23 11:48:20;;;;;;;21.43;7.57;;;7.30;99.90;;;;;;6277532;22;20201;-92
2021/01/23 11:50:47;;;;;;;20.20;6.93;;;7.30;99.90;;;;;;6278185;22;20321;-92
2021/01/23 11:53:14;;;;;;;15.70;6.80;;;7.30;99.90;;;;;;6277407;22;20215;-92
2021/01/23 11:55:40;;;;;;;8.87;5.83;;;7.10;99.90;;;;;;6277624;22;20197;-92
2021/01/23 11:58:07;;;;;;;9.27;5.70;;;7.20;99.90;;;;;;6278370;22;20189;-91
2021/01/23 12:00:35;;;;;;;12.07;6.60;;;7.00;99.90;;;;;;6278053;22;20180;-91
2021/01/23 12:03:01;;;;;;;8.27;5.57;;;7.00;99.90;;;;;;6274273;22;20196;-92
2021/01/23 12:05:28;;;;;;;12.53;5.83;;;6.90;99.90;;;;;;6269561;22;20168;-91
2021/01/23 12:07:55;;;;;;;12.53;5.40;;;6.90;99.90;;;;;;6277647;22;20504;-92
2021/01/23 12:10:22;;;;;;;6.73;4.90;;;6.90;99.90;;;;;;6277592;22;20191;-92
2021/01/23 12:12:48;;;;;;;11.23;4.80;;;7.00;99.90;;;;;;6277737;22;20223;-92
2021/01/23 12:15:16;;;;;;;11.47;4.27;;;7.10;99.90;;;;;;6278032;22;20197;-92
2021/01/23 12:17:43;;;;;;;11.57;5.03;;;7.10;99.90;;;;;;6281654;22;20252;-91
2021/01/23 12:20:10;;;;;;;12.43;5.20;;;7.10;99.90;;;;;;6281452;22;20215;-90
2021/01/23 12:22:37;;;;;;;8.10;4.33;;;7.20;99.90;;;;;;6277733;22;20248;-92
2021/01/23 12:25:07;;;;;;;9.13;4.17;;;7.20;99.90;;;;;;6277579;22;20193;-91
2021/01/23 12:27:33;;;;;;;9.53;4.13;;;7.20;99.90;;;;;;6277150;22;20197;-92
2021/01/23 12:30:00;;;;;;;7.87;4.20;;;7.20;99.90;;;;;;6277253;22;20177;-92
2021/01/23 12:32:26;;;;;;;7.77;4.00;;;7.30;99.90;;;;;;6277113;22;20173;-91
2021/01/23 12:34:53;;;;;;;12.03;3.90;;;7.20;99.90;;;;;;6277638;22;20268;-91
2021/01/23 12:37:19;;;;;;;9.17;3.53;;;7.20;99.90;;;;;;6277695;22;20187;-91
2021/01/23 12:39:45;;;;;;;10.00;4.07;;;7.10;99.90;;;;;;6277371;22;20670;-89
2021/01/23 12:42:13;;;;;;;10.10;4.03;;;7.10;99.90;;;;;;6277695;22;20161;-91
2021/01/23 12:44:39;;;;;;;9.20;3.67;;;7.20;99.90;;;;;;6277317;22;20208;-91
2021/01/23 12:47:06;;;;;;;10.87;3.77;;;7.20;99.90;;;;;;6279355;22;20538;-92
2021/01/23 12:49:33;;;;;;;9.47;3.67;;;7.10;99.90;;;;;;6278610;22;20244;-92
2021/01/23 12:51:59;;;;;;;7.70;3.37;;;7.40;99.90;;;;;;6277664;22;20614;-91
2021/01/23 12:54:26;;;;;;;7.00;3.13;;;7.40;99.90;;;;;;6277170;22;20201;-92
2021/01/23 12:56:52;;;;;;;10.20;3.73;;;7.20;99.90;;;;;;6277951;22;20177;-91
2021/01/23 12:59:19;;;;;;;9.67;3.20;;;7.00;99.90;;;;;;6277464;22;20181;-93
2021/01/23 13:01:46;;;;;;;10.47;3.47;;;7.20;99.90;;;;;;6278610;22;20162;-96
2021/01/23 13:04:12;;;;;;;9.63;3.37;;;7.10;99.90;;;;;;6277529;22;20230;-91
2021/01/23 13:06:38;;;;;;;11.07;3.00;;;7.10;99.90;;;;;;6277477;22;20177;-92
2021/01/23 13:09:06;;;;;;;10.67;3.30;;;7.00;99.90;;;;;;6277721;22;20201;-92
2021/01/23 13:11:33;;;;;;;7.23;3.00;;;7.10;99.90;;;;;;6277995;22;20173;-92
2021/01/23 13:14:00;;;;;;;9.27;3.53;;;7.10;99.90;;;;;;6278126;22;20347;-92
2021/01/23 13:16:27;;;;;;;10.37;4.33;;;7.10;99.90;;;;;;6277971;22;20168;-92
2021/01/23 13:18:54;;;;;;;9.73;3.63;;;7.20;99.90;;;;;;6277959;22;20161;-91
2021/01/23 13:21:20;;;;;;;10.20;3.97;;;7.20;99.90;;;;;;6280150;22;20615;-92
2021/01/23 13:23:48;;;;;;;11.47;3.40;;;7.40;99.90;;;;;;6279796;22;20179;-92
2021/01/23 13:26:14;;;;;;;10.90;3.17;;;7.30;99.90;;;;;;6279181;22;20185;-92
2021/01/23 13:28:41;;;;;;;8.77;3.87;;;7.50;99.90;;;;;;6278976;22;20652;-91
2021/01/23 13:31:07;;;;;;;9.13;3.47;;;7.20;99.90;;;;;;6279390;22;20513;-92
2021/01/23 13:33:35;;;;;;;11.60;3.87;;;7.00;99.90;;;;;;6280133;22;20184;-92
2021/01/23 13:36:01;;;;;;;8.47;2.80;;;7.00;99.90;;;;;;6279614;22;20494;-91
2021/01/23 13:38:28;;;;;;;5.30;2.97;;;7.10;99.90;;;;;;6252448;22;20174;-92
2021/01/23 13:40:54;;;;;;;9.77;2.90;;;7.10;99.90;;;;;;6278707;22;20605;-91
2021/01/23 13:43:21;;;;;;;9.20;3.17;;;7.20;99.90;;;;;;6279400;22;20244;-93
2021/01/23 13:45:47;;;;;;;6.80;3.10;;;7.30;99.90;;;;;;6278863;22;20197;-92
2021/01/23 13:48:13;;;;;;;6.63;2.50;;;7.30;99.90;;;;;;6279508;22;20208;-92
2021/01/23 13:50:41;;;;;;;6.07;3.03;;;7.30;99.90;;;;;;6279461;22;20166;-92
2021/01/23 13:53:07;;;;;;;7.90;3.13;;;7.30;99.90;;;;;;6252050;22;20682;-92
2021/01/23 13:55:33;;;;;;;8.57;3.00;;;7.30;99.90;;;;;;6278847;22;20200;-92
2021/01/23 13:58:00;;;;;;;5.50;3.20;;;7.30;99.90;;;;;;6279155;22;20168;-92
2021/01/23 14:00:27;;;;;;;7.23;3.17;;;7.40;99.90;;;;;;6279826;22;20267;-93
2021/01/23 14:02:53;;;;;;;6.90;2.80;;;7.30;99.90;;;;;;6278864;22;20170;-93
2021/01/23 14:05:20;;;;;;;9.60;3.10;;;7.10;99.90;;;;;;6278914;22;20229;-92
2021/01/23 14:07:47;;;;;;;6.73;2.93;;;7.20;99.90;;;;;;6279517;22;20250;-92
2021/01/23 14:10:15;;;;;;;7.53;3.30;;;7.20;99.90;;;;;;6279112;22;20161;-92
2021/01/23 14:12:41;;;;;;;7.23;3.20;;;7.10;99.90;;;;;;6278878;22;20512;-92
2021/01/23 14:15:08;;;;;;;8.30;3.10;;;7.10;99.90;;;;;;6251697;22;20194;-93
2021/01/23 14:17:34;;;;;;;7.22;3.58;;;7.10;99.90;;;;;;6278303;22;20704;-92
2021/01/23 14:20:01;;;;;;;7.97;3.83;;;7.20;99.90;;;;;;6279334;22;20179;-92
2021/01/23 14:22:27;;;;;;;11.70;3.57;;;7.20;99.90;;;;;;6278918;22;20627;-92
2021/01/23 14:24:55;;;;;;;8.03;2.73;;;7.50;99.90;;;;;;6279925;22;20231;-90
2021/01/23 14:27:21;;;;;;;11.23;3.40;;;7.40;99.90;;;;;;6281713;22;20180;-90
2021/01/23 14:29:48;;;;;;;13.30;6.77;;;7.50;99.90;;;;;;6280433;22;20192;-91
2021/01/23 14:32:15;;;;;;;15.60;8.80;;;7.60;99.90;;;;;;6279366;22;20166;-90
2021/01/23 14:34:42;;;;;;;18.33;10.53;;;7.70;99.90;;;;;;6279646;22;20298;-90
2021/01/23 14:37:09;;;;;;;20.17;10.60;;;7.40;99.90;;;;;;6278907;22;20216;-91
2021/01/23 14:39:36;;;;;;;21.90;10.77;;;7.20;99.90;;;;;;6278939;22;20161;-90
2021/01/23 14:42:04;;;;;;;22.77;10.40;;;7.20;99.90;;;;;;6278762;22;20688;-91
2021/01/23 14:44:30;;;;;;;20.80;10.27;;;7.10;99.90;;;;;;6278689;22;20507;-92
2021/01/23 14:46:57;;;;;;;21.33;11.17;;;7.00;99.90;;;;;;6279266;22;20173;-91
2021/01/23 14:49:24;;;;;;;25.20;11.37;;;7.00;99.90;;;;;;6278493;22;20636;-91
2021/01/23 14:51:50;;;;;;;27.60;11.27;;;7.00;99.90;;;;;;6278469;22;20161;-91
2021/01/23 14:54:17;;;;;;;24.87;13.73;;;6.90;99.90;;;;;;6278696;22;20200;-90
2021/01/23 14:56:43;;;;;;;22.40;11.90;;;6.80;99.90;;;;;;6279110;22;20204;-92
2021/01/23 14:59:11;;;;;;;22.63;12.03;;;6.60;99.90;;;;;;6279004;22;20205;-90
2021/01/23 15:01:37;;;;;;;28.83;13.77;;;6.70;99.90;;;;;;6278649;22;20673;-91
2021/01/23 15:04:05;;;;;;;22.70;11.77;;;6.80;99.90;;;;;;6278431;22;20252;-91
2021/01/23 15:06:31;;;;;;;21.63;11.97;;;6.90;99.90;;;;;;6278459;22;20206;-91
2021/01/23 15:08:58;;;;;;;23.50;12.20;;;6.80;99.90;;;;;;6278446;22;20584;-92
2021/01/23 15:11:24;;;;;;;22.17;11.57;;;6.60;99.90;;;;;;6278901;22;20161;-91
2021/01/23 15:13:51;;;;;;;21.27;11.43;;;6.70;99.90;;;;;;6278562;22;20165;-92
2021/01/23 15:16:18;;;;;;;21.80;10.53;;;6.60;99.90;;;;;;6278261;22;20176;-92
2021/01/23 15:18:44;;;;;;;23.73;10.63;;;6.50;99.90;;;;;;6278379;22;20249;-91
2021/01/23 15:21:10;;;;;;;23.83;10.90;;;6.60;99.90;;;;;;6278629;22;20168;-91
2021/01/23 15:23:37;;;;;;;23.60;13.82;;;6.60;99.90;;;;;;6276830;22;20499;-92
2021/01/23 15:26:03;;;;;;;20.97;11.87;;;6.40;99.90;;;;;;6278399;22;20605;-93
2021/01/23 15:28:29;;;;;;;19.50;11.23;;;6.40;99.90;;;;;;6279043;22;20507;-92
2021/01/23 15:30:56;;;;;;;19.93;11.47;;;6.40;99.90;;;;;;6279069;22;20176;-94
2021/01/23 15:33:24;;;;;;;20.77;11.30;;;6.40;99.90;;;;;;6278264;22;20248;-93
2021/01/23 15:35:51;;;;;;;22.80;12.07;;;6.40;99.90;;;;;;6278046;22;20197;-91
2021/01/23 15:38:17;;;;;;;20.87;12.13;;;6.20;99.90;;;;;;6278602;22;20173;-91
2021/01/23 15:40:43;;;;;;;18.90;11.43;;;6.20;99.90;;;;;;6278143;22;20177;-92
2021/01/23 15:43:10;;;;;;;19.33;11.43;;;5.90;99.90;;;;;;6278378;22;20161;-92
2021/01/23 15:45:36;;;;;;;22.77;12.30;;;5.90;99.90;;;;;;6278205;22;20192;-93
2021/01/23 15:48:03;;;;;;;19.93;13.07;;;6.10;99.90;;;;;;6278686;22;20200;-91
2021/01/23 15:50:30;;;;;;;16.83;13.63;;;6.00;99.90;;;;;;6251802;22;20181;-91
2021/01/23 15:52:57;;;;;;;18.77;14.50;;;5.90;99.90;;;;;;6278243;22;20216;-90
2021/01/23 15:55:25;;;;;;;19.97;13.00;;;5.90;99.90;;;;;;6278153;22;20426;-92
2021/01/23 15:57:51;;;;;;;20.27;14.30;;;5.90;99.90;;;;;;6277893;22;20247;-91
2021/01/23 16:00:18;;;;;;;28.03;15.77;;;5.80;99.90;;;;;;6278508;22;20244;-92
2021/01/23 16:02:44;;;;;;;25.97;15.40;;;5.70;99.90;;;;;;6277132;22;20409;-91
2021/01/23 16:05:12;;;;;;;20.63;14.33;;;5.70;99.90;;;;;;6265835;22;20464;-92
2021/01/23 16:07:39;;;;;;;23.93;14.37;;;5.70;99.90;;;;;;6278176;22;20444;-91
2021/01/23 16:10:07;;;;;;;26.77;14.83;;;5.70;99.90;;;;;;6278378;22;20835;-91
2021/01/23 16:12:33;;;;;;;25.73;15.10;;;5.50;99.90;;;;;;6277894;22;20410;-91
2021/01/23 16:15:00;;;;;;;19.93;14.63;;;5.70;99.90;;;;;;6278465;22;20436;-91
2021/01/23 16:17:26;;;;;;;25.17;16.20;;;5.70;99.90;;;;;;6279350;22;20211;-93
2021/01/23 16:19:53;;;;;;;20.93;16.00;;;5.70;99.90;;;;;;6279426;22;20248;-93
2021/01/23 16:22:20;;;;;;;21.67;16.53;;;5.70;99.90;;;;;;6279043;22;20497;-93
2021/01/23 16:24:47;;;;;;;25.67;17.77;;;5.70;99.90;;;;;;6279400;22;20458;-91
2021/01/23 16:27:14;;;;;;;25.08;19.75;;;5.50;99.90;;;;;;6279079;22;20899;-92
2021/01/23 16:29:41;;;;;;;24.07;18.53;;;5.40;99.90;;;;;;6279952;22;20231;-93
2021/01/23 16:32:09;;;;;;;24.07;18.63;;;5.40;99.90;;;;;;6280237;22;20437;-94
2021/01/23 16:34:36;;;;;;;26.17;18.63;;;5.40;99.90;;;;;;6279620;22;20434;-92
2021/01/23 16:37:05;;;;;;;21.77;17.00;;;5.40;99.90;;;;;;6281972;22;20422;-92
2021/01/23 16:39:31;;;;;;;27.13;18.63;;;5.30;99.90;;;;;;6289346;22;20196;-93
2021/01/23 16:41:59;;;;;;;16.03;12.30;;;5.20;99.90;;;;;;6290355;22;20402;-92
2021/01/23 16:44:26;;;;;;;13.97;11.57;;;4.90;99.90;;;;;;6278508;22;20435;-91
2021/01/23 16:46:52;;;;;;;13.43;11.40;;;4.60;99.90;;;;;;6281041;22;20429;-91
2021/01/23 16:49:19;;;;;;;11.53;10.33;;;4.50;99.90;;;;;;6282678;22;20838;-92
2021/01/23 16:51:46;;;;;;;13.93;10.20;;;4.30;99.90;;;;;;6278808;22;20406;-90
2021/01/23 16:54:12;;;;;;;10.17;9.13;;;4.20;99.90;;;;;;6279553;22;20414;-90
2021/01/23 16:56:39;;;;;;;8.23;7.40;;;3.90;99.90;;;;;;6281511;22;20906;-91
2021/01/23 16:59:06;;;;;;;9.63;8.53;;;3.80;99.90;;;;;;6280756;22;20429;-90
2021/01/23 17:01:32;;;;;;;8.60;7.70;;;3.60;99.90;;;;;;6281701;22;20471;-90
2021/01/23 17:03:59;;;;;;;10.80;9.70;;;3.60;99.90;;;;;;6280921;22;20934;-90
2021/01/23 17:06:27;;;;;;;10.87;9.37;;;3.50;99.90;;;;;;6280874;22;20402;-90
2021/01/23 17:08:54;;;;;;;11.80;8.70;;;3.50;99.90;;;;;;6279968;22;20442;-90
2021/01/23 17:11:20;;;;;;;12.43;8.70;;;3.40;99.90;;;;;;6280948;22;20877;-90
2021/01/23 17:13:47;;;;;;;9.80;8.80;;;3.30;99.90;;;;;;6281035;22;20406;-89
2021/01/23 17:16:14;;;;;;;10.60;9.50;;;3.10;99.90;;;;;;6280370;22;20410;-91
2021/01/23 17:18:40;;;;;;;10.60;9.27;;;2.90;99.90;;;;;;6281453;22;20410;-90
2021/01/23 17:21:07;;;;;;;12.43;10.40;;;2.90;99.90;;;;;;6281338;22;20403;-90
2021/01/23 17:23:33;;;;;;;8.83;7.93;;;2.80;99.90;;;;;;6280515;22;20410;-88
2021/01/23 17:26:00;;;;;;;10.57;9.03;;;2.70;99.90;;;;;;6281477;22;20437;-88